Time;durP1;ratioP1;P1;durP2;ratioP2;P2;SDS_P1;SDS_P2;PMS_P1;PMS_P2;Temp;Humidity;BMP_temperature;BMP_pressure;BME280_temperature;BME280_humidity;BME280_pressure;Samples;Min_cycle;Max_cycle;Signal;HPM_P1;HPM_P2
2021/01/15 00:01:35;;;;;;;22.30;18.17;;;;;;;;;;5068107;28;20427;-40
2021/01/15 00:04:01;;;;;;;19.98;14.90;;;;;;;;;;5066840;28;20063;-40
2021/01/15 00:06:27;;;;;;;27.13;20.67;;;;;;;;;;5067312;28;20027;-42
2021/01/15 00:08:53;;;;;;;26.08;20.05;;;;;;;;;;5066446;28;20041;-40
2021/01/15 00:11:21;;;;;;;24.40;18.80;;;;;;;;;;5068087;28;20032;-43
2021/01/15 00:13:47;;;;;;;33.60;19.40;;;;;;;;;;5066359;28;20029;-38
2021/01/15 00:16:26;;;;;;;28.77;20.48;;;;;;;;;;5067554;28;20028;-36
2021/01/15 00:18:53;;;;;;;27.52;23.90;;;;;;;;;;5067221;28;20032;-36
2021/01/15 00:21:30;;;;;;;29.80;24.73;;;;;;;;;;5067268;28;20028;-37
2021/01/15 00:23:57;;;;;;;28.30;21.52;;;;;;;;;;5068191;28;20037;-36
2021/01/15 00:26:23;;;;;;;26.48;23.70;;;;;;;;;;5062089;28;20029;-37
2021/01/15 00:28:49;;;;;;;25.05;20.25;;;;;;;;;;5067683;28;20059;-40
2021/01/15 00:31:14;;;;;;;24.48;19.83;;;;;;;;;;5067924;28;20028;-36
2021/01/15 00:33:40;;;;;;;39.53;24.27;;;;;;;;;;5067820;28;20033;-41
2021/01/15 00:36:06;;;;;;;37.55;28.73;;;;;;;;;;5067803;28;20449;-37
2021/01/15 00:38:31;;;;;;;38.75;27.00;;;;;;;;;;5067542;28;20036;-36
2021/01/15 00:41:07;;;;;;;45.20;25.75;;;;;;;;;;5067932;28;20036;-36
2021/01/15 00:43:32;;;;;;;31.10;27.88;;;;;;;;;;5067704;28;20105;-36
2021/01/15 00:45:58;;;;;;;33.72;25.20;;;;;;;;;;5067429;28;20238;-43
2021/01/15 00:48:23;;;;;;;19.17;17.27;;;;;;;;;;5063473;28;20461;-35
2021/01/15 00:50:49;;;;;;;38.42;24.40;;;;;;;;;;5070131;28;20542;-37
2021/01/15 00:53:14;;;;;;;26.30;22.63;;;;;;;;;;5070386;28;20031;-35
2021/01/15 00:55:40;;;;;;;39.10;25.30;;;;;;;;;;5070421;28;20471;-35
2021/01/15 00:58:05;;;;;;;28.30;23.17;;;;;;;;;;5070122;28;20435;-36
2021/01/15 01:00:30;;;;;;;28.75;22.90;;;;;;;;;;5069195;28;20052;-36
2021/01/15 01:02:56;;;;;;;21.23;19.08;;;;;;;;;;5070757;28;20064;-35
2021/01/15 01:05:21;;;;;;;21.00;18.27;;;;;;;;;;5070150;28;20416;-35
2021/01/15 01:07:50;;;;;;;23.70;19.20;;;;;;;;;;5070230;28;20487;-38
2021/01/15 01:10:15;;;;;;;20.85;18.63;;;;;;;;;;5070918;28;20020;-39
2021/01/15 01:12:41;;;;;;;16.75;13.35;;;;;;;;;;5073043;28;20032;-36
2021/01/15 01:15:10;;;;;;;25.80;16.00;;;;;;;;;;5074519;28;20061;-35
2021/01/15 01:17:35;;;;;;;28.50;25.30;;;;;;;;;;5072893;28;20032;-35
2021/01/15 01:20:01;;;;;;;28.35;25.35;;;;;;;;;;5074011;28;20349;-38
2021/01/15 01:22:26;;;;;;;22.23;16.27;;;;;;;;;;5073901;28;20032;-35
2021/01/15 01:24:52;;;;;;;28.10;15.52;;;;;;;;;;5073973;28;20086;-34
2021/01/15 01:27:17;;;;;;;20.92;18.73;;;;;;;;;;5074238;28;20128;-38
2021/01/15 01:29:42;;;;;;;21.95;18.17;;;;;;;;;;5071508;28;20029;-35
2021/01/15 01:32:07;;;;;;;22.42;17.70;;;;;;;;;;5076169;28;20021;-35
2021/01/15 01:34:33;;;;;;;13.38;11.40;;;;;;;;;;5072375;28;20047;-36
2021/01/15 01:36:58;;;;;;;29.15;18.63;;;;;;;;;;5074384;28;20058;-39
2021/01/15 01:39:23;;;;;;;20.00;15.00;;;;;;;;;;5074327;28;20407;-38
2021/01/15 01:41:49;;;;;;;23.00;15.05;;;;;;;;;;5065721;28;20021;-39
2021/01/15 01:44:14;;;;;;;14.57;12.07;;;;;;;;;;5074101;28;20172;-37
2021/01/15 01:46:39;;;;;;;19.75;14.27;;;;;;;;;;5073420;28;20074;-37
2021/01/15 01:49:05;;;;;;;22.83;14.07;;;;;;;;;;5071796;28;20033;-37
2021/01/15 01:51:31;;;;;;;14.68;13.18;;;;;;;;;;5073368;28;20024;-39
2021/01/15 01:53:56;;;;;;;13.70;11.55;;;;;;;;;;5073677;28;20036;-36
2021/01/15 01:56:21;;;;;;;18.40;13.82;;;;;;;;;;5073803;28;20468;-36
2021/01/15 01:58:47;;;;;;;15.85;12.13;;;;;;;;;;5073325;28;20063;-36
2021/01/15 02:01:12;;;;;;;13.88;11.43;;;;;;;;;;5073310;28;20147;-36
2021/01/15 02:03:37;;;;;;;19.42;13.52;;;;;;;;;;5072078;28;20036;-35
2021/01/15 02:06:04;;;;;;;19.00;15.35;;;;;;;;;;5073576;28;20020;-36
2021/01/15 02:08:29;;;;;;;22.92;18.65;;;;;;;;;;5072855;28;20043;-37
2021/01/15 02:11:13;;;;;;;31.45;19.67;;;;;;;;;;5072075;28;20024;-36
2021/01/15 02:13:39;;;;;;;17.10;13.07;;;;;;;;;;5073472;28;20020;-37
2021/01/15 02:16:17;;;;;;;15.95;13.57;;;;;;;;;;5073073;28;20095;-36
2021/01/15 02:18:48;;;;;;;18.15;12.32;;;;;;;;;;5073745;28;20051;-36
2021/01/15 02:21:21;;;;;;;16.95;13.82;;;;;;;;;;5072903;28;20063;-35
2021/01/15 02:23:46;;;;;;;13.70;11.00;;;;;;;;;;5072922;28;20060;-36
2021/01/15 02:26:14;;;;;;;16.67;14.00;;;;;;;;;;5066335;28;20052;-35
2021/01/15 02:28:58;;;;;;;13.85;11.70;;;;;;;;;;5072581;28;20084;-36
2021/01/15 02:31:29;;;;;;;13.43;10.35;;;;;;;;;;5072710;28;20755;-36
2021/01/15 02:34:13;;;;;;;13.68;10.75;;;;;;;;;;5065799;28;20024;-36
2021/01/15 02:36:48;;;;;;;14.85;10.50;;;;;;;;;;5072491;28;20025;-36
2021/01/15 02:39:24;;;;;;;18.77;13.70;;;;;;;;;;5072940;28;20075;-36
2021/01/15 02:41:49;;;;;;;18.85;15.82;;;;;;;;;;5064833;28;20016;-38
2021/01/15 02:44:16;;;;;;;17.27;14.07;;;;;;;;;;5072348;28;20029;-36
2021/01/15 02:46:47;;;;;;;20.80;16.77;;;;;;;;;;5072511;28;20052;-37
2021/01/15 02:49:12;;;;;;;;;;;;;;;;;;5073047;28;20040;-36
2021/01/15 02:51:39;;;;;;;21.53;14.60;;;;;;;;;;5069739;28;19931;-36
2021/01/15 02:54:04;;;;;;;17.42;15.57;;;;;;;;;;5072497;28;20104;-37
2021/01/15 02:56:30;;;;;;;14.43;13.05;;;;;;;;;;5070871;28;20127;-35
2021/01/15 02:58:55;;;;;;;21.58;15.52;;;;;;;;;;5072592;28;20407;-36
2021/01/15 03:01:21;;;;;;;16.38;14.75;;;;;;;;;;5072236;28;20367;-36
2021/01/15 03:04:13;;;;;;;24.02;16.65;;;;;;;;;;5071877;28;20451;-37
2021/01/15 03:06:43;;;;;;;22.17;15.82;;;;;;;;;;5069197;28;20029;-36
2021/01/15 03:09:09;;;;;;;31.83;19.17;;;;;;;;;;5072364;28;20372;-35
2021/01/15 03:11:35;;;;;;;44.88;19.10;;;;;;;;;;5070663;28;20016;-36
2021/01/15 03:14:01;;;;;;;17.30;14.73;;;;;;;;;;5072322;28;20054;-37
2021/01/15 03:16:28;;;;;;;17.58;15.73;;;;;;;;;;5072082;28;20029;-40
2021/01/15 03:18:55;;;;;;;14.82;13.15;;;;;;;;;;5070501;28;20103;-35
2021/01/15 03:21:20;;;;;;;15.80;13.48;;;;;;;;;;5071870;28;20028;-37
2021/01/15 03:23:46;;;;;;;14.27;12.02;;;;;;;;;;5071738;28;20035;-36
2021/01/15 03:26:13;;;;;;;17.80;12.02;;;;;;;;;;5071812;28;20052;-35
2021/01/15 03:28:38;;;;;;;15.98;11.25;;;;;;;;;;5071371;28;20060;-35
2021/01/15 03:31:03;;;;;;;17.15;8.85;;;;;;;;;;5071486;28;20020;-36
2021/01/15 03:33:29;;;;;;;14.52;9.20;;;;;;;;;;5071281;28;20046;-39
2021/01/15 03:35:54;;;;;;;16.48;10.00;;;;;;;;;;5071965;28;20054;-37
2021/01/15 03:38:19;;;;;;;12.27;10.40;;;;;;;;;;5070108;28;20046;-37
2021/01/15 03:40:45;;;;;;;13.45;10.13;;;;;;;;;;5071180;28;20460;-36
2021/01/15 03:43:11;;;;;;;13.90;11.48;;;;;;;;;;5071565;28;20052;-35
2021/01/15 03:45:36;;;;;;;16.08;11.55;;;;;;;;;;5070079;28;20453;-36
2021/01/15 03:48:02;;;;;;;14.93;10.95;;;;;;;;;;5071295;28;20039;-35
2021/01/15 03:50:27;;;;;;;11.55;7.32;;;;;;;;;;5070591;28;20020;-38
2021/01/15 03:52:52;;;;;;;13.45;10.65;;;;;;;;;;5071133;28;20112;-35
2021/01/15 03:55:17;;;;;;;12.00;9.00;;;;;;;;;;5071008;28;20047;-37
2021/01/15 03:57:44;;;;;;;10.18;7.55;;;;;;;;;;5070913;28;20035;-36
2021/01/15 04:00:10;;;;;;;10.45;9.38;;;;;;;;;;5086765;28;20150;-36
2021/01/15 04:02:36;;;;;;;14.27;10.98;;;;;;;;;;5070866;28;20558;-35
2021/01/15 04:05:01;;;;;;;16.13;9.38;;;;;;;;;;5070845;28;20090;-38
2021/01/15 04:07:26;;;;;;;10.55;9.30;;;;;;;;;;5070954;28;20043;-39
2021/01/15 04:09:52;;;;;;;12.98;8.35;;;;;;;;;;5086378;28;20032;-39
2021/01/15 04:12:17;;;;;;;7.05;6.40;;;;;;;;;;5070715;28;20099;-35
2021/01/15 04:14:43;;;;;;;11.57;7.75;;;;;;;;;;5070760;28;20103;-35
2021/01/15 04:17:08;;;;;;;12.35;6.05;;;;;;;;;;5070732;28;20020;-36
2021/01/15 04:19:33;;;;;;;10.75;7.05;;;;;;;;;;5069397;28;20086;-36
2021/01/15 04:21:59;;;;;;;9.65;7.22;;;;;;;;;;5070290;28;20471;-36
2021/01/15 04:24:25;;;;;;;11.77;7.70;;;;;;;;;;5062489;28;20500;-36
2021/01/15 04:26:54;;;;;;;8.85;7.05;;;;;;;;;;5070602;28;20634;-35
2021/01/15 04:29:19;;;;;;;12.10;5.60;;;;;;;;;;5062589;28;20142;-36
2021/01/15 04:31:45;;;;;;;9.00;5.40;;;;;;;;;;5068028;28;20411;-35
2021/01/15 04:34:10;;;;;;;7.78;7.00;;;;;;;;;;5065947;28;20029;-35
2021/01/15 04:36:35;;;;;;;4.43;3.88;;;;;;;;;;5070332;28;20108;-36
2021/01/15 04:39:01;;;;;;;8.65;7.20;;;;;;;;;;5070997;28;20067;-37
2021/01/15 04:41:26;;;;;;;8.65;7.75;;;;;;;;;;5070612;28;20049;-35
2021/01/15 04:43:54;;;;;;;12.52;8.32;;;;;;;;;;5070845;28;20078;-37
2021/01/15 04:46:20;;;;;;;12.45;6.15;;;;;;;;;;5074261;28;20103;-37
2021/01/15 04:48:47;;;;;;;8.20;5.00;;;;;;;;;;5074609;28;20127;-36
2021/01/15 04:51:17;;;;;;;6.68;5.28;;;;;;;;;;5075080;28;20024;-36
2021/01/15 04:53:48;;;;;;;8.77;5.47;;;;;;;;;;5074788;28;20086;-35
2021/01/15 04:56:15;;;;;;;11.70;6.22;;;;;;;;;;5074380;28;20024;-36
2021/01/15 04:58:43;;;;;;;6.07;3.85;;;;;;;;;;5073231;28;20044;-39
2021/01/15 05:01:09;;;;;;;5.28;4.22;;;;;;;;;;5073802;28;20077;-36
2021/01/15 05:03:39;;;;;;;6.72;4.47;;;;;;;;;;5072386;28;20441;-36
2021/01/15 05:06:07;;;;;;;5.45;4.43;;;;;;;;;;5074251;28;20074;-36
2021/01/15 05:08:34;;;;;;;10.02;4.40;;;;;;;;;;5074391;28;20040;-39
2021/01/15 05:11:02;;;;;;;5.88;3.92;;;;;;;;;;5073283;28;20031;-38
2021/01/15 05:13:32;;;;;;;9.40;3.47;;;;;;;;;;5074205;28;20037;-38
2021/01/15 05:15:57;;;;;;;5.57;2.90;;;;;;;;;;5089826;28;20475;-37
2021/01/15 05:18:23;;;;;;;6.10;3.85;;;;;;;;;;5074377;28;20071;-38
2021/01/15 05:20:49;;;;;;;9.20;4.47;;;;;;;;;;5089732;28;20757;-36
2021/01/15 05:23:15;;;;;;;7.07;4.05;;;;;;;;;;5074240;28;20032;-36
2021/01/15 05:25:44;;;;;;;5.72;3.15;;;;;;;;;;5073947;28;20040;-35
2021/01/15 05:28:10;;;;;;;6.03;3.17;;;;;;;;;;5073427;28;20087;-35
2021/01/15 05:30:38;;;;;;;5.10;3.40;;;;;;;;;;5072759;28;20079;-35
2021/01/15 05:33:09;;;;;;;6.05;3.40;;;;;;;;;;5073887;28;20035;-37
2021/01/15 05:35:43;;;;;;;15.73;6.63;;;;;;;;;;5073753;28;20048;-36
2021/01/15 05:38:10;;;;;;;9.52;4.85;;;;;;;;;;5074038;28;20029;-36
2021/01/15 05:40:37;;;;;;;6.90;4.70;;;;;;;;;;5073236;28;20024;-36
2021/01/15 05:43:02;;;;;;;6.20;3.75;;;;;;;;;;5073833;28;20029;-37
2021/01/15 05:45:28;;;;;;;10.77;3.67;;;;;;;;;;5073077;28;20070;-36
2021/01/15 05:47:53;;;;;;;6.68;3.70;;;;;;;;;;5073826;28;20085;-36
2021/01/15 05:50:18;;;;;;;3.92;2.72;;;;;;;;;;5073327;28;20024;-40
2021/01/15 05:52:59;;;;;;;4.88;2.75;;;;;;;;;;5073007;28;20043;-35
2021/01/15 05:55:27;;;;;;;9.50;3.15;;;;;;;;;;5073576;28;20135;-36
2021/01/15 05:57:52;;;;;;;4.13;2.38;;;;;;;;;;5072318;28;20071;-35
2021/01/15 06:00:30;;;;;;;4.45;3.60;;;;;;;;;;5072821;28;20056;-35
2021/01/15 06:02:58;;;;;;;5.78;3.00;;;;;;;;;;5072839;28;20039;-36
2021/01/15 06:05:24;;;;;;;4.45;2.28;;;;;;;;;;5073124;28;20020;-36
2021/01/15 06:07:56;;;;;;;8.55;2.17;;;;;;;;;;5073455;28;20389;-36
2021/01/15 06:10:21;;;;;;;3.55;1.27;;;;;;;;;;5073096;28;20610;-36
2021/01/15 06:12:47;;;;;;;3.55;2.10;;;;;;;;;;5073671;28;20072;-37
2021/01/15 06:15:12;;;;;;;2.88;2.03;;;;;;;;;;5072830;28;20150;-37
2021/01/15 06:17:38;;;;;;;4.18;1.92;;;;;;;;;;5071713;28;20081;-36
2021/01/15 06:20:04;;;;;;;6.30;3.00;;;;;;;;;;5072360;28;20103;-36
2021/01/15 06:22:30;;;;;;;5.72;2.63;;;;;;;;;;5072816;28;20174;-36
2021/01/15 06:25:07;;;;;;;22.33;8.88;;;;;;;;;;5073118;28;20059;-36
2021/01/15 06:27:37;;;;;;;6.22;3.15;;;;;;;;;;5072195;28;20497;-38
2021/01/15 06:30:26;;;;;;;14.85;4.75;;;;;;;;;;5072858;28;20043;-37
2021/01/15 06:32:52;;;;;;;18.88;4.68;;;;;;;;;;5077329;28;20393;-37
2021/01/15 06:35:24;;;;;;;9.27;4.30;;;;;;;;;;5068552;28;20028;-36
2021/01/15 06:38:13;;;;;;;10.93;6.20;;;;;;;;;;5064325;28;20711;-36
2021/01/15 06:40:39;;;;;;;11.18;5.68;;;;;;;;;;5059777;28;20060;-37
2021/01/15 06:43:09;;;;;;;9.45;8.30;;;;;;;;;;5071099;28;20547;-37
2021/01/15 06:45:40;;;;;;;8.50;6.70;;;;;;;;;;5072245;28;20487;-39
2021/01/15 06:48:10;;;;;;;52.88;17.83;;;;;;;;;;5072418;28;20070;-37
2021/01/15 06:50:37;;;;;;;14.38;9.88;;;;;;;;;;5072491;28;20491;-36
2021/01/15 06:53:13;;;;;;;8.65;6.00;;;;;;;;;;5069996;28;20041;-37
2021/01/15 06:55:41;;;;;;;24.42;8.75;;;;;;;;;;5072223;28;20151;-36
2021/01/15 06:58:13;;;;;;;12.25;6.70;;;;;;;;;;5072169;28;20075;-37
2021/01/15 07:00:41;;;;;;;17.77;8.73;;;;;;;;;;5072314;28;20024;-37
2021/01/15 07:03:18;;;;;;;12.45;9.38;;;;;;;;;;5072298;28;20033;-37
2021/01/15 07:05:44;;;;;;;11.80;6.10;;;;;;;;;;5070926;28;20023;-36
2021/01/15 07:08:10;;;;;;;13.30;6.80;;;;;;;;;;5070900;28;20047;-37
2021/01/15 07:10:36;;;;;;;11.68;8.27;;;;;;;;;;5070647;28;20028;-36
2021/01/15 07:13:05;;;;;;;32.80;14.55;;;;;;;;;;5071863;28;20408;-42
2021/01/15 07:15:35;;;;;;;14.68;13.07;;;;;;;;;;5071960;28;20103;-37
2021/01/15 07:18:04;;;;;;;28.15;20.63;;;;;;;;;;5071692;28;20040;-36
2021/01/15 07:20:33;;;;;;;17.90;14.70;;;;;;;;;;5071957;28;20027;-37
2021/01/15 07:23:08;;;;;;;19.75;11.85;;;;;;;;;;5071769;28;20044;-37
2021/01/15 07:25:36;;;;;;;8.80;6.82;;;;;;;;;;5071840;28;20097;-37
2021/01/15 07:28:01;;;;;;;21.13;11.85;;;;;;;;;;5071469;28;20079;-39
2021/01/15 07:30:27;;;;;;;21.30;10.43;;;;;;;;;;5070583;28;20457;-37
2021/01/15 07:32:54;;;;;;;14.77;9.63;;;;;;;;;;5071603;28;20123;-37
2021/01/15 07:35:20;;;;;;;18.45;13.77;;;;;;;;;;5071783;28;20119;-38
2021/01/15 07:37:45;;;;;;;17.05;11.95;;;;;;;;;;5071556;28;20033;-37
2021/01/15 07:40:12;;;;;;;9.35;7.63;;;;;;;;;;5071585;28;20024;-37
2021/01/15 07:42:37;;;;;;;9.38;6.88;;;;;;;;;;5071396;28;20045;-37
2021/01/15 07:45:03;;;;;;;11.77;7.90;;;;;;;;;;5071564;28;20024;-38
2021/01/15 07:47:28;;;;;;;16.02;12.57;;;;;;;;;;5071427;28;20389;-37
2021/01/15 07:49:54;;;;;;;18.63;14.48;;;;;;;;;;5071075;28;20020;-37
2021/01/15 07:52:19;;;;;;;21.05;13.65;;;;;;;;;;5069786;28;20627;-37
2021/01/15 07:54:44;;;;;;;15.57;13.05;;;;;;;;;;5070954;28;20031;-36
2021/01/15 07:57:11;;;;;;;16.98;13.05;;;;;;;;;;5070618;28;20457;-39
2021/01/15 07:59:36;;;;;;;14.50;13.02;;;;;;;;;;5071278;28;20055;-36
2021/01/15 08:02:02;;;;;;;68.60;52.40;;;;;;;;;;5070722;28;20048;-37
2021/01/15 08:04:27;;;;;;;71.20;47.40;;;;;;;;;;5071164;28;20074;-37
2021/01/15 08:06:54;;;;;;;52.33;41.70;;;;;;;;;;5070793;28;20051;-36
2021/01/15 08:09:19;;;;;;;68.03;52.35;;;;;;;;;;5071111;28;20140;-37
2021/01/15 08:11:55;;;;;;;62.17;47.90;;;;;;;;;;5071093;28;20103;-36
2021/01/15 08:14:21;;;;;;;41.85;27.77;;;;;;;;;;5071271;28;20028;-36
2021/01/15 08:16:47;;;;;;;32.13;22.25;;;;;;;;;;5070850;28;20077;-36
2021/01/15 08:19:15;;;;;;;25.60;14.23;;;;;;;;;;5071180;28;20040;-36
2021/01/15 08:21:41;;;;;;;16.67;10.50;;;;;;;;;;5069896;28;20098;-35
2021/01/15 08:24:07;;;;;;;23.35;12.85;;;;;;;;;;5070718;28;20021;-36
2021/01/15 08:26:51;;;;;;;23.95;14.30;;;;;;;;;;5070193;28;20047;-37
2021/01/15 08:29:17;;;;;;;36.00;13.52;;;;;;;;;;5069883;28;20049;-37
2021/01/15 08:31:46;;;;;;;17.67;10.07;;;;;;;;;;5068411;28;20053;-52
2021/01/15 08:34:12;;;;;;;20.33;13.10;;;;;;;;;;5071146;28;20025;-48
2021/01/15 08:36:41;;;;;;;30.13;15.98;;;;;;;;;;5070340;28;20452;-47
2021/01/15 08:39:08;;;;;;;31.85;18.75;;;;;;;;;;5068369;28;20522;-48
2021/01/15 08:41:34;;;;;;;41.22;22.67;;;;;;;;;;5069491;28;20060;-54
2021/01/15 08:43:59;;;;;;;27.13;16.85;;;;;;;;;;5069655;28;20794;-50
2021/01/15 08:46:25;;;;;;;34.30;17.90;;;;;;;;;;5069657;28;20024;-50
2021/01/15 08:48:50;;;;;;;17.90;12.73;;;;;;;;;;5068559;28;20025;-56
2021/01/15 08:51:19;;;;;;;25.00;13.40;;;;;;;;;;5069907;28;20028;-47
2021/01/15 08:54:04;;;;;;;22.38;14.80;;;;;;;;;;5069621;28;20029;-49
2021/01/15 08:56:35;;;;;;;41.55;17.95;;;;;;;;;;5068162;28;20756;-46
2021/01/15 08:59:00;;;;;;;21.02;16.17;;;;;;;;;;5070593;28;20044;-47
2021/01/15 09:01:26;;;;;;;27.38;13.77;;;;;;;;;;5070847;28;20062;-47
2021/01/15 09:03:54;;;;;;;17.27;11.02;;;;;;;;;;5070924;28;20035;-46
2021/01/15 09:06:20;;;;;;;26.38;13.63;;;;;;;;;;5079864;28;20033;-48
2021/01/15 09:08:46;;;;;;;26.77;14.63;;;;;;;;;;5070605;28;20483;-49
2021/01/15 09:11:12;;;;;;;29.00;16.15;;;;;;;;;;5070835;28;20097;-44
2021/01/15 09:13:38;;;;;;;45.03;15.10;;;;;;;;;;5070644;28;20032;-46
2021/01/15 09:16:04;;;;;;;22.85;17.63;;;;;;;;;;5070023;28;20028;-44
2021/01/15 09:18:29;;;;;;;25.02;18.30;;;;;;;;;;5070960;28;20388;-44
2021/01/15 09:20:54;;;;;;;21.35;18.73;;;;;;;;;;5069518;28;20119;-48
2021/01/15 09:23:20;;;;;;;69.95;62.72;;;;;;;;;;5069649;28;20418;-48
2021/01/15 09:25:45;;;;;;;22.52;17.75;;;;;;;;;;5070554;28;20028;-47
2021/01/15 09:28:10;;;;;;;25.60;16.02;;;;;;;;;;5070521;28;20494;-49
2021/01/15 09:30:36;;;;;;;42.67;13.02;;;;;;;;;;5070518;28;20032;-47
2021/01/15 09:33:01;;;;;;;15.23;7.95;;;;;;;;;;5073909;28;20471;-49
2021/01/15 09:35:26;;;;;;;17.10;13.05;;;;;;;;;;5074283;28;20033;-48
2021/01/15 09:37:51;;;;;;;44.63;40.58;;;;;;;;;;5074048;28;20493;-49
2021/01/15 09:40:17;;;;;;;15.95;11.30;;;;;;;;;;5074273;28;20039;-49
2021/01/15 09:42:47;;;;;;;25.88;13.32;;;;;;;;;;5073038;28;20025;-55
2021/01/15 09:45:12;;;;;;;17.58;8.55;;;;;;;;;;5074052;28;20051;-43
2021/01/15 09:47:42;;;;;;;11.80;5.38;;;;;;;;;;5073371;28;20082;-46
2021/01/15 09:50:07;;;;;;;16.83;8.05;;;;;;;;;;5073729;28;20029;-47
2021/01/15 09:52:33;;;;;;;13.43;5.78;;;;;;;;;;5072974;28;20361;-46
2021/01/15 09:54:58;;;;;;;11.07;6.05;;;;;;;;;;5073005;28;20464;-54
2021/01/15 09:57:24;;;;;;;13.95;7.28;;;;;;;;;;5073417;28;20171;-52
2021/01/15 09:59:49;;;;;;;21.60;17.63;;;;;;;;;;5073577;28;20033;-46
2021/01/15 10:02:14;;;;;;;28.75;14.65;;;;;;;;;;5073351;28;20012;-48
2021/01/15 10:04:40;;;;;;;26.38;11.93;;;;;;;;;;5073262;28;20024;-55
2021/01/15 10:07:05;;;;;;;17.25;14.48;;;;;;;;;;5073231;28;20025;-46
2021/01/15 10:09:30;;;;;;;17.15;10.68;;;;;;;;;;5073371;28;20062;-47
2021/01/15 10:11:56;;;;;;;20.50;13.55;;;;;;;;;;5073776;28;20032;-49
2021/01/15 10:14:21;;;;;;;18.02;4.93;;;;;;;;;;5073848;28;20020;-48
2021/01/15 10:16:49;;;;;;;12.95;3.97;;;;;;;;;;5073307;28;20032;-48
2021/01/15 10:19:15;;;;;;;8.43;4.50;;;;;;;;;;5074076;28;20021;-43
2021/01/15 10:21:40;;;;;;;35.42;6.72;;;;;;;;;;5073110;28;20476;-51
2021/01/15 10:24:07;;;;;;;4.32;2.33;;;;;;;;;;5073466;28;20033;-45
2021/01/15 10:26:33;;;;;;;6.05;3.85;;;;;;;;;;5073382;28;20048;-50
2021/01/15 10:29:02;;;;;;;5.90;4.43;;;;;;;;;;5073328;28;20048;-46
2021/01/15 10:31:28;;;;;;;9.00;5.93;;;;;;;;;;5072683;28;20032;-49
2021/01/15 10:33:57;;;;;;;12.13;6.15;;;;;;;;;;5073487;28;20063;-45
2021/01/15 10:36:22;;;;;;;14.70;7.32;;;;;;;;;;5071726;28;20029;-43
2021/01/15 10:38:48;;;;;;;18.95;8.13;;;;;;;;;;5072617;28;20165;-45
2021/01/15 10:41:14;;;;;;;10.32;7.82;;;;;;;;;;5073185;28;20033;-47
2021/01/15 10:43:40;;;;;;;13.45;4.20;;;;;;;;;;5071260;28;20361;-52
2021/01/15 10:46:05;;;;;;;38.25;11.23;;;;;;;;;;5072741;28;20157;-46
2021/01/15 10:48:30;;;;;;;60.95;20.02;;;;;;;;;;5072878;28;20081;-47
2021/01/15 10:50:56;;;;;;;46.83;34.75;;;;;;;;;;5072834;28;20035;-46
2021/01/15 10:53:21;;;;;;;38.35;24.85;;;;;;;;;;5072379;28;20076;-45
2021/01/15 10:55:48;;;;;;;41.22;31.83;;;;;;;;;;5072168;28;20066;-57
2021/01/15 10:58:13;;;;;;;39.72;25.15;;;;;;;;;;5072834;28;20456;-46
2021/01/15 11:00:39;;;;;;;30.40;13.98;;;;;;;;;;5071862;28;20017;-51
2021/01/15 11:03:04;;;;;;;12.95;6.68;;;;;;;;;;5064004;28;20029;-53
2021/01/15 11:05:29;;;;;;;13.13;9.35;;;;;;;;;;5055011;28;20435;-51
2021/01/15 11:07:55;;;;;;;13.75;10.18;;;;;;;;;;5066914;28;20134;-57
2021/01/15 11:10:20;;;;;;;21.67;8.98;;;;;;;;;;5069140;28;20047;-57
2021/01/15 11:12:45;;;;;;;17.25;9.05;;;;;;;;;;5068698;28;20392;-58
2021/01/15 11:15:11;;;;;;;22.95;13.77;;;;;;;;;;5068939;28;20078;-57
2021/01/15 11:17:37;;;;;;;22.52;12.77;;;;;;;;;;5067698;28;20029;-55
2021/01/15 11:20:04;;;;;;;18.02;5.90;;;;;;;;;;5068512;28;20028;-56
2021/01/15 11:22:29;;;;;;;20.55;8.05;;;;;;;;;;5067931;28;20107;-58
2021/01/15 11:24:54;;;;;;;22.25;7.65;;;;;;;;;;5068861;28;20107;-58
2021/01/15 11:27:20;;;;;;;18.63;8.50;;;;;;;;;;5068184;28;20037;-60
2021/01/15 11:29:45;;;;;;;16.90;7.13;;;;;;;;;;5068435;28;20071;-62
2021/01/15 11:32:11;;;;;;;24.77;20.20;;;;;;;;;;5067748;28;20044;-58
2021/01/15 11:34:36;;;;;;;14.13;5.28;;;;;;;;;;5066651;28;20086;-50
2021/01/15 11:37:01;;;;;;;8.48;3.47;;;;;;;;;;5067860;28;20024;-49
2021/01/15 11:39:27;;;;;;;22.90;6.68;;;;;;;;;;5068600;28;20110;-55
2021/01/15 11:41:53;;;;;;;33.90;5.75;;;;;;;;;;5068048;28;20086;-52
2021/01/15 11:44:19;;;;;;;31.60;8.65;;;;;;;;;;5068437;28;20037;-55
2021/01/15 11:46:44;;;;;;;14.05;6.55;;;;;;;;;;5067934;28;20042;-53
2021/01/15 11:49:09;;;;;;;23.65;5.60;;;;;;;;;;5067938;28;20033;-52
2021/01/15 11:51:35;;;;;;;30.02;16.35;;;;;;;;;;5067967;28;20028;-54
2021/01/15 11:54:00;;;;;;;28.50;10.43;;;;;;;;;;5067075;28;20052;-49
2021/01/15 11:56:25;;;;;;;20.02;9.55;;;;;;;;;;5067656;28;20526;-53
2021/01/15 11:58:51;;;;;;;25.65;11.30;;;;;;;;;;5066793;28;20111;-49
2021/01/15 12:01:16;;;;;;;22.35;8.52;;;;;;;;;;5067783;28;20027;-52
2021/01/15 12:03:41;;;;;;;53.70;39.45;;;;;;;;;;5067080;28;20358;-49
2021/01/15 12:06:07;;;;;;;43.70;29.08;;;;;;;;;;5067802;28;20032;-55
2021/01/15 12:08:32;;;;;;;23.45;14.00;;;;;;;;;;5067620;28;20612;-56
2021/01/15 12:10:59;;;;;;;45.85;31.27;;;;;;;;;;5068035;28;20028;-56
2021/01/15 12:13:25;;;;;;;37.47;14.57;;;;;;;;;;5067782;28;20117;-51
2021/01/15 12:15:54;;;;;;;22.70;13.77;;;;;;;;;;5067804;28;20469;-55
2021/01/15 12:18:19;;;;;;;43.13;6.40;;;;;;;;;;5067906;28;20178;-56
2021/01/15 12:20:45;;;;;;;15.48;6.35;;;;;;;;;;5067579;28;20475;-51
2021/01/15 12:23:11;;;;;;;34.42;19.55;;;;;;;;;;5067405;28;20436;-53
2021/01/15 12:25:38;;;;;;;30.10;16.65;;;;;;;;;;5067773;28;20051;-60
2021/01/15 12:28:04;;;;;;;19.38;8.65;;;;;;;;;;5065918;28;20389;-50
2021/01/15 12:30:30;;;;;;;14.68;5.63;;;;;;;;;;5067353;28;20043;-52
2021/01/15 12:32:55;;;;;;;15.32;5.07;;;;;;;;;;5067167;28;20491;-47
2021/01/15 12:35:20;;;;;;;21.45;6.95;;;;;;;;;;5067476;28;20606;-52
2021/01/15 12:37:46;;;;;;;16.67;4.97;;;;;;;;;;5067048;28;20032;-55
2021/01/15 12:40:12;;;;;;;23.95;9.55;;;;;;;;;;5067591;28;20532;-50
2021/01/15 12:42:37;;;;;;;29.85;12.73;;;;;;;;;;5067089;28;20052;-49
2021/01/15 12:45:03;;;;;;;37.10;24.02;;;;;;;;;;5067422;28;20050;-48
2021/01/15 12:47:28;;;;;;;29.98;21.75;;;;;;;;;;5067162;28;20016;-59
2021/01/15 12:49:54;;;;;;;44.35;30.52;;;;;;;;;;5067341;28;20523;-46
2021/01/15 12:52:19;;;;;;;67.55;48.92;;;;;;;;;;5066813;28;20027;-51
2021/01/15 12:54:45;;;;;;;27.65;22.52;;;;;;;;;;5067279;28;20125;-50
2021/01/15 12:57:10;;;;;;;15.70;8.05;;;;;;;;;;5066723;28;20043;-57
2021/01/15 12:59:35;;;;;;;16.48;9.27;;;;;;;;;;5065145;28;20050;-60
2021/01/15 13:02:01;;;;;;;37.28;25.23;;;;;;;;;;5066372;28;20024;-56
2021/01/15 13:04:29;;;;;;;20.83;16.10;;;;;;;;;;5066706;28;20028;-55
2021/01/15 13:06:54;;;;;;;82.40;73.40;;;;;;;;;;5068215;28;20449;-55
2021/01/15 13:09:20;;;;;;;183.32;146.57;;;;;;;;;;5070888;28;20115;-56
2021/01/15 13:11:45;;;;;;;140.95;116.05;;;;;;;;;;5070215;28;20028;-60
2021/01/15 13:14:10;;;;;;;84.93;64.47;;;;;;;;;;5070576;28;20043;-60
2021/01/15 13:16:36;;;;;;;171.25;146.35;;;;;;;;;;5070042;28;20109;-62
2021/01/15 13:19:02;;;;;;;28.95;22.60;;;;;;;;;;5071079;28;20209;-59
2021/01/15 13:21:27;;;;;;;20.55;17.52;;;;;;;;;;5070920;28;20103;-61
2021/01/15 13:23:52;;;;;;;143.95;93.97;;;;;;;;;;5070393;28;20032;-60
2021/01/15 13:26:18;;;;;;;137.38;108.40;;;;;;;;;;5070645;28;20093;-55
2021/01/15 13:28:43;;;;;;;91.65;62.95;;;;;;;;;;5070083;28;20137;-62
2021/01/15 13:31:09;;;;;;;57.50;47.67;;;;;;;;;;5071012;28;20020;-57
2021/01/15 13:33:34;;;;;;;26.35;17.63;;;;;;;;;;5070773;28;20051;-61
2021/01/15 13:36:00;;;;;;;13.00;7.10;;;;;;;;;;5069194;28;20039;-58
2021/01/15 13:38:26;;;;;;;32.45;18.55;;;;;;;;;;5068255;28;20043;-61
2021/01/15 13:40:51;;;;;;;24.25;15.05;;;;;;;;;;5068691;28;20021;-56
2021/01/15 13:43:16;;;;;;;32.28;17.75;;;;;;;;;;5068517;28;20032;-60
2021/01/15 13:45:43;;;;;;;19.55;13.25;;;;;;;;;;5068785;28;20035;-62
2021/01/15 13:48:09;;;;;;;46.10;13.85;;;;;;;;;;5068745;28;20020;-60
2021/01/15 13:50:45;;;;;;;20.60;9.68;;;;;;;;;;5066917;28;20437;-57
2021/01/15 13:53:10;;;;;;;26.23;7.03;;;;;;;;;;5069560;28;20350;-58
2021/01/15 13:55:35;;;;;;;16.55;5.93;;;;;;;;;;5068653;28;20031;-56
2021/01/15 13:58:01;;;;;;;20.00;7.68;;;;;;;;;;5068751;28;20032;-59
2021/01/15 14:00:26;;;;;;;9.13;4.93;;;;;;;;;;5069453;28;20095;-62
2021/01/15 14:02:51;;;;;;;6.72;4.03;;;;;;;;;;5067583;28;20051;-60
2021/01/15 14:05:17;;;;;;;14.52;6.20;;;;;;;;;;5069426;28;20500;-59
2021/01/15 14:07:46;;;;;;;20.33;9.40;;;;;;;;;;5083957;28;20040;-57
2021/01/15 14:10:12;;;;;;;19.38;7.60;;;;;;;;;;5068857;28;20127;-59
2021/01/15 14:12:37;;;;;;;11.77;5.18;;;;;;;;;;5068559;28;20159;-59
2021/01/15 14:15:03;;;;;;;14.45;8.63;;;;;;;;;;5068047;28;20071;-60
2021/01/15 14:17:28;;;;;;;12.50;4.90;;;;;;;;;;5065894;28;20021;-59
2021/01/15 14:19:54;;;;;;;14.88;5.68;;;;;;;;;;5068686;28;20894;-59
2021/01/15 14:22:19;;;;;;;9.45;6.05;;;;;;;;;;5068796;28;20025;-60